Flight Track Log - Related Links

Times and Time Zones

All times are in EDT time to prevent confusion due to time zone crossing. See the VH-FKY flight status page for this flight to view local times or setup timezone preferences in your user account.

Time Position Orientation Groundspeed Altitude Reporting Facility
EDT Latitude Longitude Course Direction KTS MPH feet Rate Location/Type
Mon 07:35:01 PM -30.6309 137.0062 162° South 12,800  Level Aus ATC (Calculated)
Mon 07:35:45 PM -30.6309 137.0062 162° South 12,800 512 Level Aus ATC (Calculated)
Mon 07:37:32 PM -30.6917 137.0603 164° South 12,800 539 Level Aus ATC (Calculated)
Mon 07:38:45 PM -30.7372 137.1009 166° South 12,800 619 Level Aus ATC (Calculated)
Mon 07:39:00 PM -30.7372 137.1009 166° South 12,800 689 Level Aus ATC (Calculated)
Mon 07:40:32 PM -30.8200 137.1200 165° South  Level FlightAware Approximate
Mon 07:42:03 PM -30.9422 137.2319 173° South 21,000  Level Aus ATC (Calculated)
Mon 07:43:24 PM -31.0105 137.2409 173° South 21,000 -108 Level Aus ATC (Calculated)
Mon 07:44:32 PM -31.0710 137.2545 174° South  Level FlightAware Approximate
Mon 07:45:32 PM -31.1244 137.2666 175° South  Level FlightAware Approximate
Mon 07:46:32 PM -31.1777 137.2787 177° South  Level FlightAware Approximate
Mon 07:47:32 PM -31.2311 137.2908 181° South  Level FlightAware Approximate
Mon 07:49:29 PM -31.3627 137.2888 176° South 267 307 20,200  Level Aus ATC (RADAR)
Mon 07:50:05 PM -31.3985 137.2914 174° South 234 269 20,600 480 Climbing Aus ATC (RADAR)
Mon 07:50:44 PM -31.4410 137.2970 173° South 232 267 20,800 405 Climbing Aus ATC (RADAR)
Mon 07:51:19 PM -31.4786 137.3025 171° South 234 269 21,100 450 Climbing Aus ATC (RADAR)
Mon 07:52:04 PM -31.5263 137.3116 174° South 234 269 21,400 216 Climbing Aus ATC (RADAR)
Mon 07:53:38 PM -31.6312 137.3242 172° South 243 280 21,600 81 Climbing Aus ATC (RADAR)
Mon 07:54:33 PM -31.6937 137.3347 175° South 249 287 21,600  Level Aus ATC (RADAR)
Mon 07:55:09 PM -31.7357 137.3390 174° South 255 293 21,600  Level Aus ATC (RADAR)
Mon 07:55:58 PM -31.7948 137.3463 174° South 258 297 21,600  Level Aus ATC (RADAR)
Mon 07:56:33 PM -31.8363 137.3511 172° South 257 296 21,600  Level Aus ATC (RADAR)
Mon 07:57:23 PM -31.8945 137.3602 174° South 254 292 21,600  Level Aus ATC (RADAR)
Mon 07:59:13 PM -32.0224 137.3772 171° South 254 292 21,600  Level Aus ATC (RADAR)
Mon 07:59:43 PM -32.0566 137.3838 171° South 254 292 21,600  Level Aus ATC (RADAR)
Mon 08:00:18 PM -32.0962 137.3908 174° South 249 287 21,600  Level Aus ATC (RADAR)
Mon 08:01:03 PM -32.1481 137.3971 173° South 249 287 21,600  Level Aus ATC (RADAR)
Mon 08:01:38 PM -32.1878 137.4031 173° South 248 285 21,600  Level Aus ATC (RADAR)
Mon 08:02:28 PM -32.2447 137.4114 173° South 247 284 21,600  Level Aus ATC (RADAR)
Mon 08:04:18 PM -32.3707 137.4286 173° South 249 287 21,600  Level Aus ATC (RADAR)
Mon 08:05:08 PM -32.4282 137.4364 174° South 249 287 21,600  Level Aus ATC (RADAR)
Mon 08:05:48 PM -32.4742 137.4422 176° South 248 285 21,600  Level Aus ATC (RADAR)
Mon 08:06:23 PM -32.5153 137.4452 170° South 253 291 21,600  Level Aus ATC (RADAR)
Mon 08:07:13 PM -32.5714 137.4566 175° South 247 284 21,600  Level Aus ATC (RADAR)
Mon 08:08:08 PM -32.6348 137.4632 172° South 249 287 21,600  Level Aus ATC (RADAR)
Mon 08:09:22 PM -32.7194 137.4767 173° South 246 283 21,600  Level Aus ATC (RADAR)
Mon 08:10:32 PM -32.7998 137.4876 174° South 250 288 21,600  Level Aus ATC (RADAR)
Mon 08:11:12 PM -32.8456 137.4930 174° South 248 285 21,600  Level Aus ATC (RADAR)
Mon 08:11:47 PM -32.8857 137.4982 172° South 250 288 21,600  Level Aus ATC (RADAR)
Mon 08:12:37 PM -32.9424 137.5075 172° South 248 285 21,600  Level Aus ATC (RADAR)
Mon 08:14:37 PM -33.0790 137.5294 162° South 249 287 21,600  Level Aus ATC (RADAR)
Mon 08:15:37 PM -33.1438 137.5542 161° South 246 283 21,600  Level Aus ATC (RADAR)
Mon 08:16:27 PM -33.1970 137.5762 162° South 244 281 21,600  Level Aus ATC (RADAR)
Mon 08:17:02 PM -33.2345 137.5911 164° South 245 282 21,600  Level Aus ATC (RADAR)
Mon 08:17:51 PM -33.2891 137.6093 162° South 245 282 21,600  Level Aus ATC (RADAR)
Mon 08:19:26 PM -33.3791 137.6434 160° South 203 234 21,600  Level Aus ATC (RADAR)
Mon 08:20:26 PM -33.4326 137.6669 163° South 205 236 21,600  Level Aus ATC (RADAR)
Mon 08:21:06 PM -33.4699 137.6803 165° South 209 241 21,600  Level Aus ATC (RADAR)
Mon 08:21:41 PM -33.5032 137.6910 162° South 211 243 21,600  Level Aus ATC (RADAR)
Mon 08:22:31 PM -33.5500 137.7092 162° South 213 245 21,600  Level Aus ATC (RADAR)
Mon 08:24:15 PM -33.6505 137.7478 163° South 218 251 21,600  Level Aus ATC (RADAR)
Mon 08:25:10 PM -33.7037 137.7679 162° South 219 252 21,600  Level Aus ATC (RADAR)
Mon 08:25:46 PM -33.7380 137.7813 164° South 223 257 21,600  Level Aus ATC (RADAR)
Mon 08:26:25 PM -33.7775 137.7952 162° South 222 255 21,600  Level Aus ATC (RADAR)
Mon 08:27:00 PM -33.8117 137.8082 163° South 222 255 21,600  Level Aus ATC (RADAR)
Mon 08:27:50 PM -33.8615 137.8269 163° South 225 259 21,600  Level Aus ATC (RADAR)
Mon 08:29:05 PM -33.9353 137.8543 163° South 223 257 21,600 -369 Level Aus ATC (RADAR)
Mon 08:30:00 PM -33.9888 137.8746 161° South 219 252 20,800 -933 Descending Aus ATC (RADAR)
Mon 08:30:35 PM -34.0217 137.8886 163° South 215 247 20,200 -1,040 Descending Aus ATC (RADAR)
Mon 08:31:15 PM -34.0599 137.9031 162° South 217 250 19,500 -880 Descending Aus ATC (RADAR)
Mon 08:31:50 PM -34.0926 137.9158 163° South 213 245 19,100 -675 Descending Aus ATC (RADAR)
Mon 08:32:35 PM -34.1349 137.9314 162° South 211 243 18,600 -635 Descending Aus ATC (RADAR)
Mon 08:33:34 PM -34.1892 137.9522 162° South 205 236 18,000 -651 Descending Aus ATC (RADAR)
Mon 08:34:44 PM -34.2516 137.9764 163° South 201 231 17,200 -700 Descending Aus ATC (RADAR)
Mon 08:35:34 PM -34.2958 137.9931 163° South 199 229 16,600 -743 Descending Aus ATC (RADAR)
Mon 08:36:29 PM -34.3441 138.0115 163° South 198 228 15,900 -800 Descending Aus ATC (RADAR)
Mon 08:37:04 PM -34.3740 138.0229 162° South 194 223 15,400 -918 Descending Aus ATC (RADAR)
Mon 08:37:54 PM -34.4165 138.0396 143° Southeast 194 223 14,600 -1,200 Descending Aus ATC (RADAR)
Mon 08:38:44 PM -34.4532 138.0727 142° Southeast 203 234 13,400 -1,800 Descending Aus ATC (RADAR)
Mon 08:39:44 PM -34.5055 138.1218 144° Southeast 243 280 11,300 -2,053 Descending Aus ATC (RADAR)
Mon 08:40:38 PM -34.5571 138.1675 143° Southeast 249 287 9,500 -2,000 Descending Aus ATC (RADAR)
Mon 08:41:23 PM -34.5977 138.2052 143° Southeast 245 282 8,000 -1,875 Descending Aus ATC (RADAR)
Mon 08:41:58 PM -34.6290 138.2335 144° Southeast 240 276 7,000 -1,765 Descending Aus ATC (RADAR)
Mon 08:42:48 PM -34.6727 138.2727 142° Southeast 230 265 5,500 -1,143 Descending Aus ATC (RADAR)
Mon 08:43:43 PM -34.7142 138.3123 149° Southeast 206 237 5,000 -1,152 Descending Aus ATC (RADAR)
Mon 08:44:53 PM -34.7741 138.3562 153° Southeast 219 252 3,100 -1,246 Descending Aus ATC (RADAR)
Mon 08:45:53 PM -34.8261 138.3891 151° Southeast 210 242 2,300 -709 Descending Aus ATC (RADAR)
Mon 08:46:43 PM -34.8666 138.4164 151° Southeast 198 228 1,800 -225 Descending Aus ATC (RADAR)
Mon 08:47:13 PM -34.8881 138.4308 128° Southeast 179 206 2,000 -456 Climbing Aus ATC (RADAR)
Mon 08:48:02 PM -34.9092 138.4640 124° Southeast 144 166 1,200 -808 Descending Aus ATC (RADAR)
Mon 08:48:57 PM -34.9257 138.4933 124° Southeast 108 124 600 -655 Descending Aus ATC (RADAR)

Login

Don't have an account? Register now (free) for customized features, flight alerts, and more!